Flight Track Log - Related Links

Times and Time Zones

All times are in EDT time to prevent confusion due to time zone crossing. See the WJA1461 flight status page for this flight to view local times or setup timezone preferences in your user account.

Time Position Orientation Groundspeed Altitude Reporting Facility
EDT Latitude Longitude Course Direction KTS MPH feet Rate Location/Type
Fri 02:30:24 PM 36.0747 -115.1819 273° West 187 215 3,100  Level Los Angeles Center
Fri 02:31:07 PM 36.0769 -115.2317 273° West 208 239 4,200 1,909 Climbing Los Angeles Center
Fri 02:32:14 PM 36.1142 -115.2903 308° West 248 285 6,600 2,348 Climbing Los Angeles Center
Fri 02:33:02 PM 36.1650 -115.2694 18° North 245 282 8,700 2,037 Climbing Los Angeles Center
Fri 02:34:03 PM 36.1942 -115.1853 67° East 280 322 10,300 1,342 Climbing Los Angeles Center
Fri 02:34:18 PM 36.1969 -115.1750 71° East 264 304 10,400 1,231 Climbing Los Angeles Center
Fri 02:35:21 PM 36.1969 -115.0342 90° East 338 389 11,900 1,728 Climbing Los Angeles Center
Fri 02:36:23 PM 36.1983 -114.9053 89° East 370 426 14,000 2,177 Climbing Los Angeles Center
Fri 02:37:25 PM 36.2158 -114.7744 81° East 398 458 16,400 2,129 Climbing Los Angeles Center
Fri 02:38:27 PM 36.2983 -114.6875 40° Northeast 397 457 18,400 2,032 Climbing Los Angeles Center
Fri 02:39:29 PM 36.3875 -114.6025 37° Northeast 404 465 20,600 1,935 Climbing Los Angeles Center
Fri 02:40:31 PM 36.4803 -114.5144 37° Northeast 416 479 22,400 1,839 Climbing Los Angeles Center
Fri 02:41:33 PM 36.5986 -114.4111 35° Northeast 433 498 24,400 1,742 Climbing Los Angeles Center
Fri 02:42:35 PM 36.7031 -114.3322 31° Northeast 438 504 26,000 1,403 Climbing Los Angeles Center
Fri 02:43:37 PM 36.8083 -114.2494 32° Northeast 445 512 27,300 1,210 Climbing Los Angeles Center
Fri 02:44:39 PM 36.9167 -114.1656 32° Northeast 456 525 28,500 1,306 Climbing Los Angeles Center
Fri 02:45:41 PM 37.0264 -114.0806 32° Northeast 462 532 30,000 1,440 Climbing Los Angeles Center
Fri 02:46:44 PM 37.1422 -113.9897 32° Northeast 460 529 31,500 1,248 Climbing Salt Lake Center
Fri 02:47:46 PM 37.2508 -113.9058 32° Northeast 458 527 32,600 1,024 Climbing Salt Lake Center
Fri 02:48:47 PM 37.3597 -113.8194 32° Northeast 460 529 33,600 1,122 Climbing Salt Lake Center
Fri 02:49:49 PM 37.4906 -113.7147 32° Northeast 462 532 34,900 677 Climbing Salt Lake Center
Fri 02:50:51 PM 37.5983 -113.6286 32° Northeast 460 529 35,000 48 Climbing Salt Lake Center
Fri 02:51:53 PM 37.7064 -113.5422 32° Northeast 458 527 35,000  Level Salt Lake Center
Fri 02:52:55 PM 37.8142 -113.4547 33° Northeast 457 526 35,000  Level Salt Lake Center
Fri 02:53:56 PM 37.9222 -113.3692 32° Northeast 456 525 35,000  Level Salt Lake Center
Fri 02:54:58 PM 38.0311 -113.2828 32° Northeast 457 526 35,000  Level Salt Lake Center
Fri 02:56:00 PM 38.1383 -113.1947 33° Northeast 457 526 35,000  Level Salt Lake Center
Fri 02:57:02 PM 38.2469 -113.1075 32° Northeast 459 528 35,000  Level Salt Lake Center
Fri 02:58:03 PM 38.3544 -113.0219 32° Northeast 455 524 35,000  Level Salt Lake Center
Fri 02:59:05 PM 38.4994 -112.9781 13° North 444 511 35,000  Level Salt Lake Center
Fri 03:00:07 PM 38.6214 -112.9461 12° North 444 511 35,000  Level Salt Lake Center
Fri 03:01:08 PM 38.7433 -112.9144 11° North 445 512 35,000  Level Salt Lake Center
Fri 03:02:10 PM 38.8658 -112.9025 North 440 506 35,000 -290 Level Salt Lake Center
Fri 03:03:12 PM 38.9894 -112.8744 10° North 447 514 34,400 -488 Descending Salt Lake Center
Fri 03:04:13 PM 39.1125 -112.8378 13° North 452 520 34,000 -195 Descending Salt Lake Center
Fri 03:05:15 PM 39.2356 -112.8019 13° North 452 520 34,000  Level Salt Lake Center
Fri 03:06:17 PM 39.3839 -112.7575 13° North 454 522 34,000 244 Level Salt Lake Center
Fri 03:07:18 PM 39.5064 -112.7211 13° North 453 521 34,500 488 Climbing Salt Lake Center
Fri 03:08:20 PM 39.6311 -112.6833 13° North 459 528 35,000 242 Climbing Salt Lake Center
Fri 03:09:22 PM 39.7569 -112.6467 13° North 458 527 35,000  Level Salt Lake Center
Fri 03:10:24 PM 39.8808 -112.6092 13° North 458 527 35,000  Level Salt Lake Center
Fri 03:11:25 PM 40.0050 -112.5972 North 446 513 35,000  Level Salt Lake Center
Fri 03:12:27 PM 40.1289 -112.5975 360° North 444 511 35,000  Level Salt Lake Center
Fri 03:13:29 PM 40.2531 -112.5983 360° North 447 514 35,000  Level Salt Lake Center
Fri 03:14:31 PM 40.4014 -112.5978 360° North 445 512 35,000  Level Salt Lake Center
Fri 03:15:32 PM 40.5275 -112.5986 360° North 450 518 35,000  Level Salt Lake Center
Fri 03:16:34 PM 40.6542 -112.6003 359° North 453 521 35,000  Level Salt Lake Center
Fri 03:17:36 PM 40.7797 -112.6014 360° North 450 518 35,000  Level Salt Lake Center
Fri 03:18:38 PM 40.9061 -112.6019 360° North 451 519 35,000  Level Salt Lake Center
Fri 03:19:39 PM 41.0328 -112.6017 360° North 453 521 35,000  Level Salt Lake Center
Fri 03:20:41 PM 41.1586 -112.6025 360° North 451 519 35,000  Level Salt Lake Center
Fri 03:21:43 PM 41.2856 -112.6028 360° North 453 521 35,000  Level Salt Lake Center
Fri 03:22:45 PM 41.4381 -112.6047 359° North 455 524 35,000  Level Salt Lake Center
Fri 03:23:46 PM 41.5647 -112.6047 360° North 455 524 35,000  Level Salt Lake Center
Fri 03:24:48 PM 41.6917 -112.6069 359° North 455 524 35,000  Level Salt Lake Center
Fri 03:25:50 PM 41.8167 -112.6064 360° North 450 518 35,000  Level Salt Lake Center
Fri 03:26:52 PM 41.9461 -112.6081 359° North 460 529 35,000  Level Salt Lake Center
Fri 03:27:54 PM 42.0742 -112.6075 360° North 460 529 35,000  Level Salt Lake Center
Fri 03:28:55 PM 42.2008 -112.6078 360° North 456 525 35,000  Level Salt Lake Center
Fri 03:29:57 PM 42.3278 -112.6086 360° North 457 526 35,000  Level Salt Lake Center
Fri 03:31:00 PM 42.4814 -112.6106 359° North 459 528 35,000  Level Salt Lake Center
Fri 03:32:01 PM 42.6103 -112.6108 360° North 462 532 35,000  Level Salt Lake Center
Fri 03:33:02 PM 42.7419 -112.6125 359° North 457 526 35,000  Level Salt Lake Center
Fri 03:34:04 PM 42.8644 -112.6142 359° North 456 525 35,000  Level Salt Lake Center
Fri 03:35:06 PM 43.0067 -112.6144 360° North 458 527 35,000  Level Salt Lake Center
Fri 03:36:07 PM 43.1275 -112.6156 360° North 455 524 35,000  Level Salt Lake Center
Fri 03:37:09 PM 43.2494 -112.6164 360° North 455 524 35,000  Level Salt Lake Center
Fri 03:38:11 PM 43.3914 -112.6175 360° North 456 525 35,000  Level Salt Lake Center
Fri 03:39:12 PM 43.5133 -112.6178 360° North 456 525 35,000  Level Salt Lake Center
Fri 03:40:14 PM 43.6550 -112.6167 360° North 455 524 35,000  Level Salt Lake Center
Fri 03:41:16 PM 43.7764 -112.6194 359° North 454 522 35,000  Level Salt Lake Center
Fri 03:42:17 PM 43.9214 -112.6222 359° North 463 533 35,000  Level Salt Lake Center
Fri 03:43:19 PM 44.0431 -112.6228 360° North 460 529 35,000  Level Salt Lake Center
Fri 03:44:20 PM 44.1647 -112.6239 360° North 455 524 35,000  Level Salt Lake Center
Fri 03:45:22 PM 44.3056 -112.6236 360° North 453 521 35,000  Level Salt Lake Center
Fri 03:46:23 PM 44.4272 -112.6258 359° North 454 522 35,000  Level Salt Lake Center
Fri 03:47:25 PM 44.5683 -112.6269 360° North 455 524 35,000  Level Salt Lake Center
Fri 03:48:26 PM 44.6881 -112.6272 360° North 449 517 35,000  Level Salt Lake Center
Fri 03:49:28 PM 44.8106 -112.6286 360° North 455 524 35,000  Level Salt Lake Center
Fri 03:50:29 PM 44.9519 -112.6300 360° North 454 522 35,000  Level Salt Lake Center
Fri 03:51:31 PM 45.0728 -112.6300 360° North 452 520 35,000  Level Salt Lake Center
Fri 03:52:33 PM 45.1936 -112.6308 360° North 452 520 35,000  Level Salt Lake Center
Fri 03:53:34 PM 45.3347 -112.6325 360° North 452 520 35,000  Level Salt Lake Center
Fri 03:54:36 PM 45.4664 -112.6342 359° North 448 516 35,000  Level Salt Lake Center
Fri 03:55:37 PM 45.5939 -112.6350 360° North 451 519 35,000  Level Salt Lake Center
Fri 03:56:39 PM 45.7203 -112.6367 359° North 454 522 35,000  Level Salt Lake Center
Fri 03:57:40 PM 45.8464 -112.6364 360° North 452 520 35,000  Level Salt Lake Center
Fri 03:58:42 PM 45.9714 -112.6381 359° North 449 517 35,000  Level Salt Lake Center
Fri 03:59:43 PM 46.0969 -112.6394 360° North 447 514 35,000  Level Salt Lake Center
Fri 04:00:45 PM 46.2217 -112.6406 360° North 446 513 35,000  Level Salt Lake Center
Fri 04:01:46 PM 46.3447 -112.6419 360° North 442 509 35,000  Level Salt Lake Center
Fri 04:02:48 PM 46.4794 -112.6408 360° North 453 521 35,000  Level Salt Lake Center
Fri 04:03:49 PM 46.6031 -112.6431 359° North 446 513 35,000  Level Salt Lake Center
Fri 04:04:51 PM 46.7278 -112.6431 360° North 448 516 35,000  Level Salt Lake Center
Fri 04:05:52 PM 46.8517 -112.6439 360° North 445 512 35,000  Level Salt Lake Center
Fri 04:06:54 PM 46.9783 -112.6433 360° North 450 518 35,000  Level Salt Lake Center
Fri 04:07:55 PM 47.1286 -112.6467 359° North 450 518 35,000  Level Salt Lake Center
Fri 04:08:57 PM 47.2525 -112.6464 360° North 448 516 35,000  Level Salt Lake Center
Fri 04:09:58 PM 47.3750 -112.6458 360° North 442 509 35,000  Level Salt Lake Center
Fri 04:11:00 PM 47.5019 -112.6500 359° North 449 517 35,000  Level Salt Lake Center
Fri 04:12:01 PM 47.6275 -112.6511 360° North 451 519 35,000  Level Salt Lake Center
Fri 04:13:03 PM 47.7525 -112.6525 360° North 448 516 35,000  Level Salt Lake Center
Fri 04:14:04 PM 47.8761 -112.6528 360° North 455 524 35,000  Level Salt Lake Center
Fri 04:15:06 PM 48.0014 -112.6547 359° North 455 524 35,000  Level Salt Lake Center
Fri 04:16:07 PM 48.1500 -112.6550 360° North 451 519 35,000  Level Salt Lake Center
Fri 04:17:09 PM 48.2744 -112.6567 359° North 451 519 35,000  Level Salt Lake Center
Fri 04:18:11 PM 48.4006 -112.6575 360° North 452 520 35,000  Level Salt Lake Center
Fri 04:19:12 PM 48.5236 -112.6581 360° North 449 517 35,000  Level Salt Lake Center
Fri 04:20:14 PM 48.6478 -112.6606 359° North 450 518 35,000  Level Salt Lake Center
Fri 04:21:15 PM 48.7714 -112.6611 360° North 447 514 35,000  Level Salt Lake Center
Fri 04:22:17 PM 48.8931 -112.6625 360° North 442 509 35,000  Level Salt Lake Center
Fri 04:22:47 PM 48.9333 -112.6833 341° North 440 506 35,000  Level Edmonton Center
Fri 04:23:47 PM 49.0667 -112.6833 360° North 440 506 35,000  Level Edmonton Center
Fri 04:24:47 PM 49.2000 -112.6667 North 440 506 35,000  Level Edmonton Center
Fri 04:25:47 PM 49.3167 -112.6667 360° North 440 506 35,000 -50 Level Edmonton Center
Fri 04:26:47 PM 49.4333 -112.6833 355° North 440 506 34,900 -900 Descending Edmonton Center
Fri 04:27:47 PM 49.5500 -112.6833 360° North 430 495 33,200 -1,850 Descending Edmonton Center
Fri 04:28:47 PM 49.6667 -112.7333 344° North 420 483 31,200 -1,550 Descending Edmonton Center
Fri 04:29:47 PM 49.7667 -112.8167 332° Northwest 420 483 30,100 -1,700 Descending Edmonton Center
Fri 04:30:47 PM 49.8833 -112.9000 335° Northwest 430 495 27,800 -2,250 Descending Edmonton Center
Fri 04:31:47 PM 49.9833 -113.0000 327° Northwest 420 483 25,600 -2,150 Descending Edmonton Center
Fri 04:32:47 PM 50.0833 -113.0667 337° Northwest 400 460 23,500 -2,200 Descending Edmonton Center
Fri 04:33:47 PM 50.1667 -113.1667 322° Northwest 390 449 21,200 -2,100 Descending Edmonton Center
Fri 04:34:47 PM 50.2667 -113.2333 337° Northwest 370 426 19,300 -1,750 Descending Edmonton Center
Fri 04:35:47 PM 50.3500 -113.3000 333° Northwest 360 414 17,700 -2,000 Descending Edmonton Center
Fri 04:36:47 PM 50.4500 -113.3667 337° Northwest 350 403 15,300 -2,150 Descending Edmonton Center
Fri 04:37:47 PM 50.5167 -113.4333 328° Northwest 340 391 13,400 -1,650 Descending Edmonton Center
Fri 04:38:47 PM 50.6000 -113.5000 333° Northwest 320 368 12,000 -1,000 Descending Edmonton Center
Fri 04:39:47 PM 50.6667 -113.5667 328° Northwest 290 334 11,400 -550 Descending Edmonton Center
Fri 04:40:47 PM 50.7167 -113.6833 304° West 270 311 10,900 -700 Descending Edmonton Center
Fri 04:41:47 PM 50.7667 -113.7833 308° West 270 311 10,000 -1,000 Descending Edmonton Center
Fri 04:42:47 PM 50.8000 -113.8667 302° West 250 288 8,900 -950 Descending Edmonton Center
Fri 04:43:47 PM 50.8333 -113.9500 302° West 240 276 8,100 -900 Descending Edmonton Center
Fri 04:44:47 PM 50.8833 -114.0500 308° West 230 265 7,100 -1,100 Descending Edmonton Center
Fri 04:45:47 PM 50.9500 -114.0333 North 210 242 5,900 -1,100 Descending Edmonton Center
Fri 04:46:47 PM 51.0000 -114.0500 348° North 180 207 4,900 -900 Descending Edmonton Center
Fri 04:47:47 PM 51.0333 -114.0500 360° North 160 184 4,100 -700 Descending Edmonton Center
Fri 04:48:47 PM 51.0833 -114.0333 12° North 150 173 3,500 -600 Descending Edmonton Center

Login

Don't have an account? Register now (free) for customized features, flight alerts, and more!